sensor_id;sensor_type;location;lat;lon;timestamp;P1;durP1;ratioP1;P2;durP2;ratioP2
32108;SDS011;18624;50.042;8.436;2023-05-15T00:01:03;2.90;;;2.70;;
32108;SDS011;18624;50.042;8.436;2023-05-15T00:03:30;2.63;;;1.92;;
32108;SDS011;18624;50.042;8.436;2023-05-15T00:05:56;2.97;;;2.78;;
32108;SDS011;18624;50.042;8.436;2023-05-15T00:08:23;3.22;;;2.60;;
32108;SDS011;18624;50.042;8.436;2023-05-15T00:10:49;3.15;;;2.75;;
32108;SDS011;18624;50.042;8.436;2023-05-15T00:13:27;2.92;;;2.33;;
32108;SDS011;18624;50.042;8.436;2023-05-15T00:15:54;3.13;;;2.83;;
32108;SDS011;18624;50.042;8.436;2023-05-15T00:18:20;3.08;;;2.50;;
32108;SDS011;18624;50.042;8.436;2023-05-15T00:20:47;2.53;;;2.33;;
32108;SDS011;18624;50.042;8.436;2023-05-15T00:23:13;2.47;;;2.22;;
32108;SDS011;18624;50.042;8.436;2023-05-15T00:25:39;2.95;;;2.75;;
32108;SDS011;18624;50.042;8.436;2023-05-15T00:28:06;2.50;;;2.30;;
32108;SDS011;18624;50.042;8.436;2023-05-15T00:30:32;2.72;;;2.53;;
32108;SDS011;18624;50.042;8.436;2023-05-15T00:32:59;2.25;;;2.05;;
32108;SDS011;18624;50.042;8.436;2023-05-15T00:35:25;2.63;;;2.42;;
32108;SDS011;18624;50.042;8.436;2023-05-15T00:37:52;3.10;;;2.00;;
32108;SDS011;18624;50.042;8.436;2023-05-15T00:40:20;2.50;;;2.17;;
32108;SDS011;18624;50.042;8.436;2023-05-15T00:42:51;2.55;;;1.95;;
32108;SDS011;18624;50.042;8.436;2023-05-15T00:45:18;3.33;;;2.42;;
32108;SDS011;18624;50.042;8.436;2023-05-15T00:47:47;2.50;;;2.30;;
32108;SDS011;18624;50.042;8.436;2023-05-15T00:50:16;2.90;;;2.50;;
32108;SDS011;18624;50.042;8.436;2023-05-15T00:52:42;3.47;;;3.17;;
32108;SDS011;18624;50.042;8.436;2023-05-15T00:55:09;3.83;;;3.10;;
32108;SDS011;18624;50.042;8.436;2023-05-15T00:57:36;2.92;;;2.33;;
32108;SDS011;18624;50.042;8.436;2023-05-15T01:00:03;3.30;;;2.30;;
32108;SDS011;18624;50.042;8.436;2023-05-15T01:02:35;4.18;;;2.63;;
32108;SDS011;18624;50.042;8.436;2023-05-15T01:05:02;4.05;;;2.63;;
32108;SDS011;18624;50.042;8.436;2023-05-15T01:07:30;3.22;;;2.47;;
32108;SDS011;18624;50.042;8.436;2023-05-15T01:10:00;2.45;;;2.10;;
32108;SDS011;18624;50.042;8.436;2023-05-15T01:12:29;3.03;;;2.72;;
32108;SDS011;18624;50.042;8.436;2023-05-15T01:14:57;5.25;;;3.00;;
32108;SDS011;18624;50.042;8.436;2023-05-15T01:17:24;3.47;;;2.75;;
32108;SDS011;18624;50.042;8.436;2023-05-15T01:19:52;2.80;;;2.28;;
32108;SDS011;18624;50.042;8.436;2023-05-15T01:22:27;5.25;;;2.72;;
32108;SDS011;18624;50.042;8.436;2023-05-15T01:27:55;4.15;;;3.28;;
32108;SDS011;18624;50.042;8.436;2023-05-15T01:30:27;3.88;;;2.78;;
32108;SDS011;18624;50.042;8.436;2023-05-15T01:33:02;5.63;;;3.83;;
32108;SDS011;18624;50.042;8.436;2023-05-15T01:35:44;2.70;;;2.50;;
32108;SDS011;18624;50.042;8.436;2023-05-15T01:38:29;2.65;;;2.22;;
32108;SDS011;18624;50.042;8.436;2023-05-15T01:43:46;4.15;;;3.33;;
32108;SDS011;18624;50.042;8.436;2023-05-15T01:46:18;2.80;;;2.60;;
32108;SDS011;18624;50.042;8.436;2023-05-15T01:48:48;2.67;;;2.47;;
32108;SDS011;18624;50.042;8.436;2023-05-15T01:51:17;5.10;;;2.80;;
32108;SDS011;18624;50.042;8.436;2023-05-15T01:53:45;3.90;;;2.67;;
32108;SDS011;18624;50.042;8.436;2023-05-15T01:56:14;2.65;;;2.45;;
32108;SDS011;18624;50.042;8.436;2023-05-15T01:58:42;2.88;;;2.58;;
32108;SDS011;18624;50.042;8.436;2023-05-15T02:01:09;3.58;;;2.97;;
32108;SDS011;18624;50.042;8.436;2023-05-15T02:03:37;2.83;;;2.63;;
32108;SDS011;18624;50.042;8.436;2023-05-15T02:06:04;2.95;;;2.75;;
32108;SDS011;18624;50.042;8.436;2023-05-15T02:08:34;3.25;;;2.80;;
32108;SDS011;18624;50.042;8.436;2023-05-15T02:11:01;3.47;;;3.17;;
32108;SDS011;18624;50.042;8.436;2023-05-15T02:13:29;3.40;;;3.10;;
32108;SDS011;18624;50.042;8.436;2023-05-15T02:15:57;3.42;;;3.17;;
32108;SDS011;18624;50.042;8.436;2023-05-15T02:18:24;3.10;;;2.90;;
32108;SDS011;18624;50.042;8.436;2023-05-15T02:20:55;2.47;;;2.28;;
32108;SDS011;18624;50.042;8.436;2023-05-15T02:23:22;3.35;;;2.83;;
32108;SDS011;18624;50.042;8.436;2023-05-15T02:25:55;2.75;;;2.55;;
32108;SDS011;18624;50.042;8.436;2023-05-15T02:28:37;3.70;;;3.40;;
32108;SDS011;18624;50.042;8.436;2023-05-15T02:31:13;3.60;;;3.25;;
32108;SDS011;18624;50.042;8.436;2023-05-15T02:33:54;3.53;;;3.22;;
32108;SDS011;18624;50.042;8.436;2023-05-15T02:36:46;3.50;;;3.15;;
32108;SDS011;18624;50.042;8.436;2023-05-15T02:39:14;2.95;;;2.75;;
32108;SDS011;18624;50.042;8.436;2023-05-15T02:41:42;3.88;;;2.92;;
32108;SDS011;18624;50.042;8.436;2023-05-15T02:44:10;6.47;;;3.90;;
32108;SDS011;18624;50.042;8.436;2023-05-15T02:46:38;2.83;;;2.63;;
32108;SDS011;18624;50.042;8.436;2023-05-15T02:49:06;4.50;;;2.83;;
32108;SDS011;18624;50.042;8.436;2023-05-15T02:51:33;3.17;;;2.75;;
32108;SDS011;18624;50.042;8.436;2023-05-15T02:54:00;3.58;;;3.15;;
32108;SDS011;18624;50.042;8.436;2023-05-15T02:56:27;3.92;;;3.00;;
32108;SDS011;18624;50.042;8.436;2023-05-15T02:58:53;3.25;;;2.95;;
32108;SDS011;18624;50.042;8.436;2023-05-15T03:01:20;3.22;;;2.92;;
32108;SDS011;18624;50.042;8.436;2023-05-15T03:03:47;3.38;;;3.08;;
32108;SDS011;18624;50.042;8.436;2023-05-15T03:06:13;3.85;;;2.85;;
32108;SDS011;18624;50.042;8.436;2023-05-15T03:08:40;4.43;;;3.35;;
32108;SDS011;18624;50.042;8.436;2023-05-15T03:11:06;3.67;;;3.38;;
32108;SDS011;18624;50.042;8.436;2023-05-15T03:13:33;2.70;;;2.50;;
32108;SDS011;18624;50.042;8.436;2023-05-15T03:15:59;3.97;;;3.58;;
32108;SDS011;18624;50.042;8.436;2023-05-15T03:18:26;3.53;;;3.22;;
32108;SDS011;18624;50.042;8.436;2023-05-15T03:20:52;3.33;;;3.03;;
32108;SDS011;18624;50.042;8.436;2023-05-15T03:23:19;3.97;;;3.10;;
32108;SDS011;18624;50.042;8.436;2023-05-15T03:25:46;3.90;;;2.92;;
32108;SDS011;18624;50.042;8.436;2023-05-15T03:28:12;2.83;;;2.63;;
32108;SDS011;18624;50.042;8.436;2023-05-15T03:30:39;4.82;;;3.40;;
32108;SDS011;18624;50.042;8.436;2023-05-15T03:33:09;3.50;;;3.20;;
32108;SDS011;18624;50.042;8.436;2023-05-15T03:35:35;3.78;;;3.10;;
32108;SDS011;18624;50.042;8.436;2023-05-15T03:38:02;3.28;;;2.80;;
32108;SDS011;18624;50.042;8.436;2023-05-15T03:40:28;5.10;;;3.38;;
32108;SDS011;18624;50.042;8.436;2023-05-15T03:42:56;3.85;;;3.17;;
32108;SDS011;18624;50.042;8.436;2023-05-15T03:45:23;3.55;;;3.08;;
32108;SDS011;18624;50.042;8.436;2023-05-15T03:47:50;3.65;;;3.35;;
32108;SDS011;18624;50.042;8.436;2023-05-15T03:50:16;4.47;;;3.03;;
32108;SDS011;18624;50.042;8.436;2023-05-15T03:52:43;3.63;;;3.33;;
32108;SDS011;18624;50.042;8.436;2023-05-15T03:55:09;3.63;;;3.25;;
32108;SDS011;18624;50.042;8.436;2023-05-15T03:57:38;4.57;;;3.28;;
32108;SDS011;18624;50.042;8.436;2023-05-15T04:00:06;3.40;;;3.10;;
32108;SDS011;18624;50.042;8.436;2023-05-15T04:02:39;3.30;;;3.00;;
32108;SDS011;18624;50.042;8.436;2023-05-15T04:05:06;3.72;;;3.38;;
32108;SDS011;18624;50.042;8.436;2023-05-15T04:07:34;8.57;;;5.80;;
32108;SDS011;18624;50.042;8.436;2023-05-15T04:10:02;7.65;;;4.55;;
32108;SDS011;18624;50.042;8.436;2023-05-15T04:12:30;3.85;;;3.35;;
32108;SDS011;18624;50.042;8.436;2023-05-15T04:15:00;3.60;;;2.63;;
32108;SDS011;18624;50.042;8.436;2023-05-15T04:17:39;3.70;;;3.03;;
32108;SDS011;18624;50.042;8.436;2023-05-15T04:20:06;3.30;;;3.00;;
32108;SDS011;18624;50.042;8.436;2023-05-15T04:22:36;3.67;;;2.95;;
32108;SDS011;18624;50.042;8.436;2023-05-15T04:25:02;3.60;;;3.30;;
32108;SDS011;18624;50.042;8.436;2023-05-15T04:27:29;3.85;;;3.55;;
32108;SDS011;18624;50.042;8.436;2023-05-15T04:29:56;4.05;;;3.70;;
32108;SDS011;18624;50.042;8.436;2023-05-15T04:32:22;3.90;;;3.50;;
32108;SDS011;18624;50.042;8.436;2023-05-15T04:34:49;3.50;;;3.15;;
32108;SDS011;18624;50.042;8.436;2023-05-15T04:37:15;3.53;;;3.22;;
32108;SDS011;18624;50.042;8.436;2023-05-15T04:39:41;4.32;;;2.70;;
32108;SDS011;18624;50.042;8.436;2023-05-15T04:42:08;4.55;;;3.42;;
32108;SDS011;18624;50.042;8.436;2023-05-15T04:44:34;4.28;;;3.38;;
32108;SDS011;18624;50.042;8.436;2023-05-15T04:47:01;3.53;;;3.22;;
32108;SDS011;18624;50.042;8.436;2023-05-15T04:49:28;4.28;;;3.78;;
32108;SDS011;18624;50.042;8.436;2023-05-15T04:51:54;3.25;;;2.92;;
32108;SDS011;18624;50.042;8.436;2023-05-15T04:54:21;4.63;;;3.38;;
32108;SDS011;18624;50.042;8.436;2023-05-15T04:56:47;4.07;;;3.78;;
32108;SDS011;18624;50.042;8.436;2023-05-15T04:59:13;4.43;;;3.30;;
32108;SDS011;18624;50.042;8.436;2023-05-15T05:01:41;3.80;;;3.28;;
32108;SDS011;18624;50.042;8.436;2023-05-15T05:04:08;6.18;;;4.07;;
32108;SDS011;18624;50.042;8.436;2023-05-15T05:06:35;5.07;;;4.07;;
32108;SDS011;18624;50.042;8.436;2023-05-15T05:09:01;5.60;;;4.45;;
32108;SDS011;18624;50.042;8.436;2023-05-15T05:11:28;4.07;;;3.58;;
32108;SDS011;18624;50.042;8.436;2023-05-15T05:13:54;5.10;;;3.80;;
32108;SDS011;18624;50.042;8.436;2023-05-15T05:16:21;4.45;;;4.05;;
32108;SDS011;18624;50.042;8.436;2023-05-15T05:18:47;4.78;;;4.38;;
32108;SDS011;18624;50.042;8.436;2023-05-15T05:21:14;4.97;;;4.53;;
32108;SDS011;18624;50.042;8.436;2023-05-15T05:23:40;3.53;;;3.22;;
32108;SDS011;18624;50.042;8.436;2023-05-15T05:26:07;4.32;;;3.70;;
32108;SDS011;18624;50.042;8.436;2023-05-15T05:28:33;4.60;;;4.20;;
32108;SDS011;18624;50.042;8.436;2023-05-15T05:31:00;4.60;;;4.20;;
32108;SDS011;18624;50.042;8.436;2023-05-15T05:33:28;3.80;;;3.50;;
32108;SDS011;18624;50.042;8.436;2023-05-15T05:35:54;2.83;;;2.63;;
32108;SDS011;18624;50.042;8.436;2023-05-15T05:38:20;3.10;;;2.80;;
32108;SDS011;18624;50.042;8.436;2023-05-15T05:40:47;3.60;;;3.22;;
32108;SDS011;18624;50.042;8.436;2023-05-15T05:43:13;3.00;;;2.80;;
32108;SDS011;18624;50.042;8.436;2023-05-15T05:45:40;2.92;;;2.72;;
32108;SDS011;18624;50.042;8.436;2023-05-15T05:48:06;2.80;;;2.60;;
32108;SDS011;18624;50.042;8.436;2023-05-15T05:50:33;3.60;;;3.30;;
32108;SDS011;18624;50.042;8.436;2023-05-15T05:52:59;3.65;;;3.15;;
32108;SDS011;18624;50.042;8.436;2023-05-15T05:55:25;3.28;;;2.97;;
32108;SDS011;18624;50.042;8.436;2023-05-15T05:57:52;3.92;;;3.63;;
32108;SDS011;18624;50.042;8.436;2023-05-15T06:00:19;4.18;;;3.58;;
32108;SDS011;18624;50.042;8.436;2023-05-15T06:02:46;3.50;;;3.20;;
32108;SDS011;18624;50.042;8.436;2023-05-15T06:05:12;3.47;;;3.03;;
32108;SDS011;18624;50.042;8.436;2023-05-15T06:07:39;4.00;;;2.63;;
32108;SDS011;18624;50.042;8.436;2023-05-15T06:10:06;4.05;;;3.10;;
32108;SDS011;18624;50.042;8.436;2023-05-15T06:12:34;3.30;;;2.70;;
32108;SDS011;18624;50.042;8.436;2023-05-15T06:15:01;3.20;;;2.90;;
32108;SDS011;18624;50.042;8.436;2023-05-15T06:17:27;2.90;;;2.70;;
32108;SDS011;18624;50.042;8.436;2023-05-15T06:19:54;3.83;;;3.20;;
32108;SDS011;18624;50.042;8.436;2023-05-15T06:22:20;3.03;;;2.83;;
32108;SDS011;18624;50.042;8.436;2023-05-15T06:24:47;3.50;;;3.20;;
32108;SDS011;18624;50.042;8.436;2023-05-15T06:27:13;3.15;;;2.85;;
32108;SDS011;18624;50.042;8.436;2023-05-15T06:29:40;3.70;;;2.85;;
32108;SDS011;18624;50.042;8.436;2023-05-15T06:32:06;3.53;;;3.10;;
32108;SDS011;18624;50.042;8.436;2023-05-15T06:34:33;3.00;;;2.70;;
32108;SDS011;18624;50.042;8.436;2023-05-15T06:36:59;4.32;;;3.60;;
32108;SDS011;18624;50.042;8.436;2023-05-15T06:39:27;4.10;;;3.63;;
32108;SDS011;18624;50.042;8.436;2023-05-15T06:41:53;3.40;;;3.10;;
32108;SDS011;18624;50.042;8.436;2023-05-15T06:44:24;3.75;;;3.42;;
32108;SDS011;18624;50.042;8.436;2023-05-15T06:46:51;2.83;;;2.63;;
32108;SDS011;18624;50.042;8.436;2023-05-15T06:49:17;4.65;;;3.30;;
32108;SDS011;18624;50.042;8.436;2023-05-15T06:51:43;4.65;;;4.22;;
32108;SDS011;18624;50.042;8.436;2023-05-15T06:54:10;4.20;;;3.78;;
32108;SDS011;18624;50.042;8.436;2023-05-15T06:56:37;5.00;;;4.10;;
32108;SDS011;18624;50.042;8.436;2023-05-15T06:59:03;4.72;;;4.32;;
32108;SDS011;18624;50.042;8.436;2023-05-15T07:01:30;5.47;;;3.92;;
32108;SDS011;18624;50.042;8.436;2023-05-15T07:03:57;5.07;;;4.57;;
32108;SDS011;18624;50.042;8.436;2023-05-15T07:06:23;4.45;;;3.38;;
32108;SDS011;18624;50.042;8.436;2023-05-15T07:08:51;4.82;;;3.97;;
32108;SDS011;18624;50.042;8.436;2023-05-15T07:11:17;5.03;;;4.53;;
32108;SDS011;18624;50.042;8.436;2023-05-15T07:13:44;4.65;;;4.22;;
32108;SDS011;18624;50.042;8.436;2023-05-15T07:16:10;5.25;;;4.30;;
32108;SDS011;18624;50.042;8.436;2023-05-15T07:18:37;4.22;;;3.83;;
32108;SDS011;18624;50.042;8.436;2023-05-15T07:21:03;5.60;;;4.60;;
32108;SDS011;18624;50.042;8.436;2023-05-15T07:23:30;5.90;;;3.80;;
32108;SDS011;18624;50.042;8.436;2023-05-15T07:25:56;5.28;;;4.35;;
32108;SDS011;18624;50.042;8.436;2023-05-15T07:28:23;5.15;;;4.32;;
32108;SDS011;18624;50.042;8.436;2023-05-15T07:30:49;5.43;;;4.88;;
32108;SDS011;18624;50.042;8.436;2023-05-15T07:33:16;6.40;;;5.28;;
32108;SDS011;18624;50.042;8.436;2023-05-15T07:35:42;6.35;;;4.90;;
32108;SDS011;18624;50.042;8.436;2023-05-15T07:38:09;5.88;;;5.15;;
32108;SDS011;18624;50.042;8.436;2023-05-15T07:40:36;5.82;;;5.30;;
32108;SDS011;18624;50.042;8.436;2023-05-15T07:43:02;4.82;;;4.43;;
32108;SDS011;18624;50.042;8.436;2023-05-15T07:45:28;7.65;;;4.30;;
32108;SDS011;18624;50.042;8.436;2023-05-15T07:47:55;4.75;;;4.18;;
32108;SDS011;18624;50.042;8.436;2023-05-15T07:50:23;4.43;;;4.03;;
32108;SDS011;18624;50.042;8.436;2023-05-15T07:52:50;3.35;;;3.10;;
32108;SDS011;18624;50.042;8.436;2023-05-15T07:55:16;4.88;;;4.43;;
32108;SDS011;18624;50.042;8.436;2023-05-15T07:57:43;4.78;;;4.30;;
32108;SDS011;18624;50.042;8.436;2023-05-15T08:00:10;4.45;;;4.05;;
32108;SDS011;18624;50.042;8.436;2023-05-15T08:02:39;6.57;;;5.10;;
32108;SDS011;18624;50.042;8.436;2023-05-15T08:05:06;6.72;;;4.82;;
32108;SDS011;18624;50.042;8.436;2023-05-15T08:07:33;6.38;;;5.80;;
32108;SDS011;18624;50.042;8.436;2023-05-15T08:10:00;7.05;;;6.18;;
32108;SDS011;18624;50.042;8.436;2023-05-15T08:12:26;17.15;;;7.80;;
32108;SDS011;18624;50.042;8.436;2023-05-15T08:14:53;7.78;;;6.97;;
32108;SDS011;18624;50.042;8.436;2023-05-15T08:17:20;8.32;;;7.53;;
32108;SDS011;18624;50.042;8.436;2023-05-15T08:19:47;9.57;;;8.43;;
32108;SDS011;18624;50.042;8.436;2023-05-15T08:22:14;10.32;;;8.73;;
32108;SDS011;18624;50.042;8.436;2023-05-15T08:24:41;13.50;;;9.38;;
32108;SDS011;18624;50.042;8.436;2023-05-15T08:27:08;15.25;;;10.70;;
32108;SDS011;18624;50.042;8.436;2023-05-15T08:29:34;10.70;;;8.93;;
32108;SDS011;18624;50.042;8.436;2023-05-15T08:32:05;11.73;;;10.43;;
32108;SDS011;18624;50.042;8.436;2023-05-15T08:34:32;14.52;;;11.32;;
32108;SDS011;18624;50.042;8.436;2023-05-15T08:36:58;14.80;;;11.88;;
32108;SDS011;18624;50.042;8.436;2023-05-15T08:39:25;14.60;;;11.23;;
32108;SDS011;18624;50.042;8.436;2023-05-15T08:41:59;17.27;;;13.30;;
32108;SDS011;18624;50.042;8.436;2023-05-15T08:44:33;12.85;;;11.40;;
32108;SDS011;18624;50.042;8.436;2023-05-15T08:47:00;17.70;;;12.82;;
32108;SDS011;18624;50.042;8.436;2023-05-15T08:52:21;14.35;;;12.43;;
32108;SDS011;18624;50.042;8.436;2023-05-15T08:54:48;14.40;;;11.32;;
32108;SDS011;18624;50.042;8.436;2023-05-15T08:57:15;12.57;;;11.27;;
32108;SDS011;18624;50.042;8.436;2023-05-15T08:59:43;14.18;;;12.68;;
32108;SDS011;18624;50.042;8.436;2023-05-15T09:02:09;14.40;;;11.93;;
32108;SDS011;18624;50.042;8.436;2023-05-15T09:04:36;13.38;;;11.98;;
32108;SDS011;18624;50.042;8.436;2023-05-15T09:07:02;11.65;;;10.43;;
32108;SDS011;18624;50.042;8.436;2023-05-15T09:09:31;14.75;;;11.75;;
32108;SDS011;18624;50.042;8.436;2023-05-15T09:11:59;12.75;;;10.90;;
32108;SDS011;18624;50.042;8.436;2023-05-15T09:14:27;12.55;;;10.18;;
32108;SDS011;18624;50.042;8.436;2023-05-15T09:16:53;13.93;;;11.55;;
32108;SDS011;18624;50.042;8.436;2023-05-15T09:19:21;13.75;;;10.52;;
32108;SDS011;18624;50.042;8.436;2023-05-15T09:21:48;14.80;;;13.25;;
32108;SDS011;18624;50.042;8.436;2023-05-15T09:24:15;11.73;;;10.48;;
32108;SDS011;18624;50.042;8.436;2023-05-15T09:26:44;13.38;;;10.75;;
32108;SDS011;18624;50.042;8.436;2023-05-15T09:29:15;11.07;;;9.38;;
32108;SDS011;18624;50.042;8.436;2023-05-15T09:31:47;13.57;;;10.77;;
32108;SDS011;18624;50.042;8.436;2023-05-15T09:34:14;13.57;;;12.18;;
32108;SDS011;18624;50.042;8.436;2023-05-15T09:36:42;11.60;;;10.40;;
32108;SDS011;18624;50.042;8.436;2023-05-15T09:39:09;11.70;;;9.52;;
32108;SDS011;18624;50.042;8.436;2023-05-15T09:41:36;10.98;;;9.38;;
32108;SDS011;18624;50.042;8.436;2023-05-15T09:44:07;12.20;;;10.07;;
32108;SDS011;18624;50.042;8.436;2023-05-15T09:46:46;11.95;;;9.95;;
32108;SDS011;18624;50.042;8.436;2023-05-15T09:49:14;12.35;;;10.77;;
32108;SDS011;18624;50.042;8.436;2023-05-15T09:51:41;15.60;;;11.85;;
32108;SDS011;18624;50.042;8.436;2023-05-15T09:54:15;16.23;;;12.40;;
32108;SDS011;18624;50.042;8.436;2023-05-15T09:56:43;13.65;;;11.80;;
32108;SDS011;18624;50.042;8.436;2023-05-15T09:59:12;15.38;;;11.98;;
32108;SDS011;18624;50.042;8.436;2023-05-15T10:01:43;17.70;;;13.35;;
32108;SDS011;18624;50.042;8.436;2023-05-15T10:04:11;16.70;;;14.18;;
32108;SDS011;18624;50.042;8.436;2023-05-15T10:06:39;18.27;;;14.15;;
32108;SDS011;18624;50.042;8.436;2023-05-15T10:09:13;18.95;;;13.10;;
32108;SDS011;18624;50.042;8.436;2023-05-15T10:11:45;13.20;;;11.20;;
32108;SDS011;18624;50.042;8.436;2023-05-15T10:14:18;14.20;;;11.48;;
32108;SDS011;18624;50.042;8.436;2023-05-15T10:16:47;13.38;;;10.73;;
32108;SDS011;18624;50.042;8.436;2023-05-15T10:19:15;15.55;;;11.93;;
32108;SDS011;18624;50.042;8.436;2023-05-15T10:21:47;15.63;;;11.35;;
32108;SDS011;18624;50.042;8.436;2023-05-15T10:24:16;13.25;;;10.38;;
32108;SDS011;18624;50.042;8.436;2023-05-15T10:26:45;14.23;;;12.00;;
32108;SDS011;18624;50.042;8.436;2023-05-15T10:29:13;16.73;;;12.80;;
32108;SDS011;18624;50.042;8.436;2023-05-15T10:31:43;12.43;;;9.93;;
32108;SDS011;18624;50.042;8.436;2023-05-15T10:34:11;12.48;;;10.13;;
32108;SDS011;18624;50.042;8.436;2023-05-15T10:36:40;13.13;;;11.60;;
32108;SDS011;18624;50.042;8.436;2023-05-15T10:39:08;13.40;;;10.93;;
32108;SDS011;18624;50.042;8.436;2023-05-15T10:41:35;14.13;;;10.05;;
32108;SDS011;18624;50.042;8.436;2023-05-15T10:44:03;14.63;;;11.02;;
32108;SDS011;18624;50.042;8.436;2023-05-15T10:46:31;11.45;;;9.63;;
32108;SDS011;18624;50.042;8.436;2023-05-15T10:49:00;15.23;;;11.75;;
32108;SDS011;18624;50.042;8.436;2023-05-15T10:51:27;14.00;;;9.82;;
32108;SDS011;18624;50.042;8.436;2023-05-15T10:53:55;11.88;;;10.43;;
32108;SDS011;18624;50.042;8.436;2023-05-15T10:56:27;13.20;;;10.40;;
32108;SDS011;18624;50.042;8.436;2023-05-15T10:58:55;12.80;;;10.15;;
32108;SDS011;18624;50.042;8.436;2023-05-15T11:06:42;13.05;;;11.38;;
32108;SDS011;18624;50.042;8.436;2023-05-15T11:11:54;14.63;;;12.38;;
32108;SDS011;18624;50.042;8.436;2023-05-15T11:14:23;11.90;;;10.65;;
32108;SDS011;18624;50.042;8.436;2023-05-15T11:22:19;14.27;;;12.18;;
32108;SDS011;18624;50.042;8.436;2023-05-15T11:27:30;11.73;;;9.50;;
32108;SDS011;18624;50.042;8.436;2023-05-15T11:40:20;10.48;;;9.30;;
32108;SDS011;18624;50.042;8.436;2023-05-15T11:45:29;13.63;;;11.85;;
32108;SDS011;18624;50.042;8.436;2023-05-15T11:47:59;12.52;;;11.32;;
32108;SDS011;18624;50.042;8.436;2023-05-15T11:50:28;10.95;;;9.85;;
32108;SDS011;18624;50.042;8.436;2023-05-15T11:52:56;9.85;;;8.85;;
32108;SDS011;18624;50.042;8.436;2023-05-15T11:55:22;11.57;;;10.48;;
32108;SDS011;18624;50.042;8.436;2023-05-15T11:57:50;10.65;;;9.05;;
32108;SDS011;18624;50.042;8.436;2023-05-15T12:00:17;8.35;;;7.50;;
32108;SDS011;18624;50.042;8.436;2023-05-15T12:02:44;9.25;;;7.38;;
32108;SDS011;18624;50.042;8.436;2023-05-15T12:05:10;9.50;;;8.50;;
32108;SDS011;18624;50.042;8.436;2023-05-15T12:07:40;10.00;;;9.02;;
32108;SDS011;18624;50.042;8.436;2023-05-15T12:10:10;9.63;;;8.68;;
32108;SDS011;18624;50.042;8.436;2023-05-15T12:12:41;7.93;;;7.28;;
32108;SDS011;18624;50.042;8.436;2023-05-15T12:15:12;7.20;;;5.03;;
32108;SDS011;18624;50.042;8.436;2023-05-15T12:17:40;7.90;;;5.45;;
32108;SDS011;18624;50.042;8.436;2023-05-15T12:20:14;7.55;;;6.85;;
32108;SDS011;18624;50.042;8.436;2023-05-15T12:22:42;7.63;;;6.13;;
32108;SDS011;18624;50.042;8.436;2023-05-15T12:25:09;11.90;;;6.05;;
32108;SDS011;18624;50.042;8.436;2023-05-15T12:27:37;7.22;;;6.53;;
32108;SDS011;18624;50.042;8.436;2023-05-15T12:30:05;7.97;;;7.18;;
32108;SDS011;18624;50.042;8.436;2023-05-15T12:32:33;8.30;;;5.95;;
32108;SDS011;18624;50.042;8.436;2023-05-15T12:35:01;6.70;;;6.10;;
32108;SDS011;18624;50.042;8.436;2023-05-15T12:37:31;7.05;;;6.45;;
32108;SDS011;18624;50.042;8.436;2023-05-15T12:40:00;7.82;;;7.03;;
32108;SDS011;18624;50.042;8.436;2023-05-15T12:42:30;10.15;;;7.05;;
32108;SDS011;18624;50.042;8.436;2023-05-15T12:44:56;9.55;;;7.13;;
32108;SDS011;18624;50.042;8.436;2023-05-15T12:47:23;9.32;;;7.93;;
32108;SDS011;18624;50.042;8.436;2023-05-15T12:49:58;9.27;;;8.38;;
32108;SDS011;18624;50.042;8.436;2023-05-15T12:52:28;10.13;;;8.30;;
32108;SDS011;18624;50.042;8.436;2023-05-15T12:54:54;40.47;;;12.43;;
32108;SDS011;18624;50.042;8.436;2023-05-15T12:57:21;26.85;;;10.63;;
32108;SDS011;18624;50.042;8.436;2023-05-15T12:59:47;9.88;;;8.75;;
32108;SDS011;18624;50.042;8.436;2023-05-15T13:02:14;9.75;;;8.73;;
32108;SDS011;18624;50.042;8.436;2023-05-15T13:04:44;8.15;;;7.35;;
32108;SDS011;18624;50.042;8.436;2023-05-15T13:07:13;9.65;;;8.18;;
32108;SDS011;18624;50.042;8.436;2023-05-15T13:09:41;8.30;;;6.95;;
32108;SDS011;18624;50.042;8.436;2023-05-15T13:12:08;8.27;;;6.28;;
32108;SDS011;18624;50.042;8.436;2023-05-15T13:14:37;8.75;;;6.75;;
32108;SDS011;18624;50.042;8.436;2023-05-15T13:17:04;8.23;;;7.30;;
32108;SDS011;18624;50.042;8.436;2023-05-15T13:19:30;8.25;;;7.45;;
32108;SDS011;18624;50.042;8.436;2023-05-15T13:21:57;9.15;;;8.27;;
32108;SDS011;18624;50.042;8.436;2023-05-15T13:24:24;9.68;;;7.57;;
32108;SDS011;18624;50.042;8.436;2023-05-15T13:26:50;7.53;;;6.82;;
32108;SDS011;18624;50.042;8.436;2023-05-15T13:29:17;8.40;;;7.57;;
32108;SDS011;18624;50.042;8.436;2023-05-15T13:31:44;8.00;;;7.20;;
32108;SDS011;18624;50.042;8.436;2023-05-15T13:34:10;9.70;;;7.90;;
32108;SDS011;18624;50.042;8.436;2023-05-15T13:36:37;14.60;;;5.97;;
32108;SDS011;18624;50.042;8.436;2023-05-15T13:39:03;6.15;;;4.88;;
32108;SDS011;18624;50.042;8.436;2023-05-15T13:41:31;4.55;;;4.13;;
32108;SDS011;18624;50.042;8.436;2023-05-15T13:43:58;6.35;;;4.43;;
32108;SDS011;18624;50.042;8.436;2023-05-15T13:46:25;5.38;;;4.57;;
32108;SDS011;18624;50.042;8.436;2023-05-15T13:48:51;4.22;;;3.45;;
32108;SDS011;18624;50.042;8.436;2023-05-15T13:51:18;2.97;;;2.70;;
32108;SDS011;18624;50.042;8.436;2023-05-15T13:53:44;3.20;;;2.90;;
32108;SDS011;18624;50.042;8.436;2023-05-15T13:56:11;4.47;;;4.07;;
32108;SDS011;18624;50.042;8.436;2023-05-15T13:58:37;4.63;;;4.13;;
32108;SDS011;18624;50.042;8.436;2023-05-15T14:01:05;5.20;;;4.70;;
32108;SDS011;18624;50.042;8.436;2023-05-15T14:03:32;5.43;;;4.93;;
32108;SDS011;18624;50.042;8.436;2023-05-15T14:05:59;5.82;;;4.32;;
32108;SDS011;18624;50.042;8.436;2023-05-15T14:08:26;7.13;;;4.75;;
32108;SDS011;18624;50.042;8.436;2023-05-15T14:10:52;3.95;;;3.22;;
32108;SDS011;18624;50.042;8.436;2023-05-15T14:13:19;6.88;;;3.80;;
32108;SDS011;18624;50.042;8.436;2023-05-15T14:15:45;5.38;;;4.55;;
32108;SDS011;18624;50.042;8.436;2023-05-15T14:18:12;5.10;;;4.55;;
32108;SDS011;18624;50.042;8.436;2023-05-15T14:20:38;5.78;;;4.40;;
32108;SDS011;18624;50.042;8.436;2023-05-15T14:23:04;7.47;;;4.50;;
32108;SDS011;18624;50.042;8.436;2023-05-15T14:25:31;4.55;;;4.20;;
32108;SDS011;18624;50.042;8.436;2023-05-15T14:27:57;4.88;;;4.43;;
32108;SDS011;18624;50.042;8.436;2023-05-15T14:30:24;6.22;;;5.07;;
32108;SDS011;18624;50.042;8.436;2023-05-15T14:32:51;5.93;;;5.32;;
32108;SDS011;18624;50.042;8.436;2023-05-15T14:35:17;7.57;;;6.78;;
32108;SDS011;18624;50.042;8.436;2023-05-15T14:37:43;9.90;;;6.47;;
32108;SDS011;18624;50.042;8.436;2023-05-15T14:40:10;9.23;;;6.28;;
32108;SDS011;18624;50.042;8.436;2023-05-15T14:42:37;8.50;;;5.90;;
32108;SDS011;18624;50.042;8.436;2023-05-15T14:45:03;6.97;;;6.38;;
32108;SDS011;18624;50.042;8.436;2023-05-15T14:47:30;7.78;;;6.60;;
32108;SDS011;18624;50.042;8.436;2023-05-15T14:49:57;8.02;;;6.63;;
32108;SDS011;18624;50.042;8.436;2023-05-15T14:52:23;8.40;;;7.25;;
32108;SDS011;18624;50.042;8.436;2023-05-15T14:54:50;8.13;;;6.60;;
32108;SDS011;18624;50.042;8.436;2023-05-15T14:57:32;10.40;;;6.95;;
32108;SDS011;18624;50.042;8.436;2023-05-15T14:59:59;9.07;;;7.57;;
32108;SDS011;18624;50.042;8.436;2023-05-15T15:02:25;8.50;;;7.45;;
32108;SDS011;18624;50.042;8.436;2023-05-15T15:04:52;6.53;;;5.93;;
32108;SDS011;18624;50.042;8.436;2023-05-15T15:07:18;8.15;;;6.78;;
32108;SDS011;18624;50.042;8.436;2023-05-15T15:09:45;7.10;;;6.40;;
32108;SDS011;18624;50.042;8.436;2023-05-15T15:12:11;7.78;;;6.00;;
32108;SDS011;18624;50.042;8.436;2023-05-15T15:14:38;6.63;;;6.00;;
32108;SDS011;18624;50.042;8.436;2023-05-15T15:17:04;7.18;;;6.22;;
32108;SDS011;18624;50.042;8.436;2023-05-15T15:19:30;8.82;;;6.80;;
32108;SDS011;18624;50.042;8.436;2023-05-15T15:21:57;7.97;;;7.07;;
32108;SDS011;18624;50.042;8.436;2023-05-15T15:24:23;7.13;;;6.43;;